Portada
METAR-TAF:

METAR-TAF

Aeropuertos :

Northeast Alabama Regional Airport

Gadsden, Alabama, Estados Unidos

latitud: 33-58N, longitud: 086-05W, altitud: 173 m

Observación

El informe se hizo hace 27 minutos, a las 17:56 UTC
Viento 7 kt del oeste-noroeste
Temperatura 10°C
Humedad 82%
Presión 1016 hPa
Visibilidad: 16.1 km
Cielo nuboso a una altura de 1600 ft
Cielo cubierto a una altura de 2200 ft

METAR: KGAD 271756Z AUTO 29007KT 10SM BKN016 OVC022 10/07 A2999 RMK AO2 SLP158 T01000072 10100 20061 58004

Hora: 12:23 (18:23 UTC)


TAF: falta

Observaciones y pronósticos meteorológicos de más de 4000 aeropuertos (mensajes METAR y TAF).

Los puntos amarillos y rojos representan las estaciones disponibles.

Ponga el ratón en el punto deseado para ver el nombre de la estación.

Haga clic para ver las observaciones y los pronósticos meteorológicos.

Para cambiar el mapa : haga clic en los botones verdes con una cruz de color negro para hacer un zoom, en el botón verde con un guión para alejar o en las flechas verdes para mapas adyacentes.


METAR-TAF: